Date,TemperatureHighF,TemperatureAvgF,TemperatureLowF,DewpointHighF,DewpointAvgF,DewpointLowF,HumidityHigh,HumidityAvg,HumidityLow,PressureMaxIn,PressureMinIn,WindSpeedMaxMPH,WindSpeedAvgMPH,GustSpeedMaxMPH,PrecipitationSumIn
2013-12-1,28,26,21,24,22,16,89,85,81,29.99,29.89,4,0,4,0.00
2013-12-2,28,26,24,25,23,21,90,88,86,29.90,29.62,4,0,4,0.00
2013-12-3,40,31,23,32,24,19,90,77,55,29.64,22.05,8,0,8,0.00
2013-12-4,36,27,10,28,20,3,85,74,66,31.15,22.05,12,1,12,0.00
2013-12-5,24,14,6,13,6,0,80,72,58,28.31,28.22,6,0,6,0.00
2013-12-6,24,14,6,12,6,-1,80,68,54,28.45,28.29,9,1,9,0.00
2013-12-7,25,18,8,18,11,0,85,74,55,30.13,28.32,9,0,9,0.00
2013-12-8,24,14,-1,18,4,-10,85,63,46,31.44,29.92,10,2,10,0.00
2013-12-9,18,5,-6,3,-5,-13,74,62,48,30.44,30.11,7,0,7,0.00
2013-12-10,23,10,-2,8,-1,-10,74,63,48,30.46,30.35,6,0,6,0.00
2013-12-11,35,20,7,18,9,0,77,63,46,30.56,30.37,4,0,4,0.04
2013-12-12,44,27,15,22,12,7,74,56,26,30.57,30.28,6,0,6,0.04
2013-12-13,34,25,16,21,14,8,74,64,56,30.28,30.17,6,0,6,0.00
2013-12-14,35,23,13,20,14,7,80,67,50,30.51,30.27,6,1,6,0.00
2013-12-15,38,24,13,24,15,8,81,69,54,30.53,30.45,4,0,4,0.00
2013-12-16,41,27,17,25,18,11,81,68,52,30.54,30.46,5,0,5,0.00
2013-12-17,47,31,20,27,19,13,77,63,41,30.59,30.47,4,0,4,0.00
2013-12-18,46,33,23,24,20,15,73,59,39,30.47,30.15,7,0,7,0.00
2013-12-19,42,34,28,26,22,19,74,62,47,30.15,30.00,5,0,5,0.00
2013-12-20,35,30,22,28,24,16,82,78,71,30.04,29.92,8,0,8,0.04
2013-12-21,28,23,18,20,16,12,78,74,69,31.43,29.92,0,0,0,0.00
2013-12-22,32,20,10,20,12,4,79,70,54,30.38,30.04,8,1,8,0.02
2013-12-23,34,21,11,19,12,4,81,67,53,30.53,30.37,5,1,5,0.00
2013-12-27,44,34,20,22,18,12,74,53,39,30.53,30.38,6,1,6,0.00
2013-12-28,40,30,20,23,18,12,75,62,47,30.38,30.15,5,0,5,0.00
2013-12-29,39,28,20,24,18,12,78,65,49,30.33,30.16,7,1,7,0.00
2013-12-30,37,25,15,22,15,9,80,67,54,30.46,30.32,5,0,5,0.00
2013-12-31,40,27,16,22,16,10,80,64,46,30.45,30.30,5,0,5,0.00